createdAt,value
2023-08-09T00:02:09.485Z,16.50
2023-08-09T00:04:36.454Z,16.50
2023-08-09T00:07:03.673Z,16.50
2023-08-09T00:09:31.358Z,16.50
2023-08-09T00:11:59.757Z,16.40
2023-08-09T00:14:26.859Z,16.40
2023-08-09T00:16:54.254Z,16.40
2023-08-09T00:19:21.467Z,16.40
2023-08-09T00:21:48.392Z,16.40
2023-08-09T00:24:15.315Z,16.30
2023-08-09T00:26:42.232Z,16.30
2023-08-09T00:29:10.629Z,16.30
2023-08-09T00:31:37.692Z,16.30
2023-08-09T00:34:07.288Z,16.30
2023-08-09T00:36:36.015Z,16.30
2023-08-09T00:39:06.732Z,16.20
2023-08-09T00:41:33.999Z,16.20
2023-08-09T00:44:02.616Z,16.20
2023-08-09T00:46:30.918Z,16.20
2023-08-09T00:48:57.884Z,16.20
2023-08-09T00:51:24.878Z,16.20
2023-08-09T00:53:51.977Z,16.30
2023-08-09T00:56:19.002Z,16.30
2023-08-09T00:58:45.930Z,16.30
2023-08-09T01:01:12.981Z,16.30
2023-08-09T01:03:41.401Z,16.30
2023-08-09T01:06:16.165Z,16.30
2023-08-09T01:08:48.832Z,16.30
2023-08-09T01:11:21.735Z,16.20
2023-08-09T01:13:51.682Z,16.20
2023-08-09T01:16:21.537Z,16.10
2023-08-09T01:18:51.392Z,16.10
2023-08-09T01:21:20.798Z,16.10
2023-08-09T01:23:50.041Z,16.10
2023-08-09T01:26:17.095Z,16.00
2023-08-09T01:28:44.004Z,16.00
2023-08-09T01:31:12.006Z,16.00
2023-08-09T01:33:39.279Z,15.90
2023-08-09T01:36:11.221Z,15.90
2023-08-09T01:38:45.182Z,15.90
2023-08-09T01:41:14.636Z,15.90
2023-08-09T01:43:42.683Z,15.90
2023-08-09T01:46:10.129Z,15.90
2023-08-09T01:48:37.018Z,15.90
2023-08-09T01:51:03.966Z,15.90
2023-08-09T01:53:31.163Z,15.80
2023-08-09T01:55:58.106Z,15.80
2023-08-09T01:58:27.114Z,15.80
2023-08-09T02:00:54.108Z,15.80
2023-08-09T02:03:21.564Z,15.80
2023-08-09T02:05:49.038Z,15.80
2023-08-09T02:08:15.937Z,15.70
2023-08-09T02:10:46.208Z,15.70
2023-08-09T02:13:14.580Z,15.70
2023-08-09T02:15:42.863Z,15.60
2023-08-09T02:18:15.891Z,15.60
2023-08-09T02:20:43.037Z,15.60
2023-08-09T02:23:10.200Z,15.70
2023-08-09T02:25:37.164Z,15.60
2023-08-09T02:28:05.282Z,15.60
2023-08-09T02:30:32.560Z,15.70
2023-08-09T02:33:01.065Z,15.60
2023-08-09T02:35:33.571Z,15.60
2023-08-09T02:38:00.565Z,15.60
2023-08-09T02:40:27.460Z,15.50
2023-08-09T02:42:54.426Z,15.50
2023-08-09T02:45:21.435Z,15.50
2023-08-09T02:47:49.404Z,15.60
2023-08-09T02:50:17.696Z,15.60
2023-08-09T02:52:44.634Z,15.60
2023-08-09T02:55:14.215Z,15.60
2023-08-09T02:57:41.234Z,15.70
2023-08-09T03:00:09.578Z,15.60
2023-08-09T03:02:37.536Z,15.60
2023-08-09T03:05:05.334Z,15.60
2023-08-09T03:07:34.023Z,15.60
2023-08-09T03:10:02.302Z,15.60
2023-08-09T03:12:29.299Z,15.60
2023-08-09T03:14:56.350Z,15.60
2023-08-09T03:17:23.385Z,15.60
2023-08-09T03:19:50.938Z,15.60
2023-08-09T03:22:18.294Z,15.60
2023-08-09T03:24:46.867Z,15.60
2023-08-09T03:27:14.557Z,15.70
2023-08-09T03:29:42.178Z,15.60
2023-08-09T03:32:09.218Z,15.70
2023-08-09T03:34:36.501Z,15.70
2023-08-09T03:37:05.131Z,15.60
2023-08-09T03:39:32.926Z,15.70
2023-08-09T03:42:01.442Z,15.70
2023-08-09T03:44:28.488Z,15.70
2023-08-09T03:46:56.925Z,15.70
2023-08-09T03:49:24.404Z,15.70
2023-08-09T03:51:51.440Z,15.70
2023-08-09T03:54:18.452Z,15.70
2023-08-09T03:56:45.477Z,15.70
2023-08-09T03:59:13.789Z,15.70
2023-08-09T04:01:40.722Z,15.70
2023-08-09T04:04:09.141Z,15.70
2023-08-09T04:06:36.384Z,15.60
2023-08-09T04:09:03.622Z,15.60
2023-08-09T04:11:30.864Z,15.60
2023-08-09T04:13:58.139Z,15.60
2023-08-09T04:16:26.871Z,15.50
2023-08-09T04:18:53.879Z,15.50
2023-08-09T04:21:21.879Z,15.50
2023-08-09T04:23:49.321Z,15.60
2023-08-09T04:26:16.607Z,15.60
2023-08-09T04:28:43.532Z,15.60
2023-08-09T04:31:10.550Z,15.60
2023-08-09T04:33:39.003Z,15.60
2023-08-09T04:36:06.029Z,15.60
2023-08-09T04:38:32.933Z,15.60
2023-08-09T04:40:59.922Z,15.70
2023-08-09T04:43:26.888Z,15.70
2023-08-09T04:45:54.792Z,15.70
2023-08-09T04:48:21.754Z,15.70
2023-08-09T04:50:49.918Z,15.60
2023-08-09T04:53:16.792Z,15.70
2023-08-09T04:55:43.713Z,15.60
2023-08-09T04:58:10.685Z,15.70
2023-08-09T05:00:37.898Z,15.60
2023-08-09T05:03:06.142Z,15.60
2023-08-09T05:05:33.073Z,15.60
2023-08-09T05:08:01.355Z,15.60
2023-08-09T05:10:28.301Z,15.60
2023-08-09T05:12:55.229Z,15.60
2023-08-09T05:15:22.246Z,15.60
2023-08-09T05:17:49.280Z,15.60
2023-08-09T05:20:17.230Z,15.60
2023-08-09T05:22:46.117Z,15.60
2023-08-09T05:25:14.493Z,15.60
2023-08-09T05:27:41.463Z,15.50
2023-08-09T05:30:09.654Z,15.50
2023-08-09T05:32:36.625Z,15.50
2023-08-09T05:35:03.782Z,15.40
2023-08-09T05:37:31.417Z,15.40
2023-08-09T05:39:58.723Z,15.40
2023-08-09T05:42:27.033Z,15.40
2023-08-09T05:44:54.900Z,15.50
2023-08-09T05:47:21.892Z,15.50
2023-08-09T05:49:49.113Z,15.60
2023-08-09T05:52:16.080Z,15.50
2023-08-09T05:54:43.476Z,15.50
2023-08-09T05:57:10.578Z,15.60
2023-08-09T05:59:38.827Z,15.50
2023-08-09T06:02:07.637Z,15.60
2023-08-09T06:04:35.132Z,15.60
2023-08-09T06:07:02.636Z,15.60
2023-08-09T06:09:29.941Z,15.70
2023-08-09T06:11:56.879Z,15.70
2023-08-09T06:14:24.790Z,15.70
2023-08-09T06:16:53.233Z,15.80
2023-08-09T06:19:20.417Z,15.80
2023-08-09T06:21:47.405Z,15.90
2023-08-09T06:24:14.833Z,15.90
2023-08-09T06:26:42.207Z,16.00
2023-08-09T06:29:10.272Z,16.00
2023-08-09T06:31:37.237Z,16.10
2023-08-09T06:34:05.831Z,16.10
2023-08-09T06:36:32.765Z,16.20
2023-08-09T06:38:59.665Z,16.30
2023-08-09T06:41:26.673Z,16.30
2023-08-09T06:43:53.598Z,16.40
2023-08-09T06:46:21.552Z,16.40
2023-08-09T06:48:48.497Z,16.40
2023-08-09T06:51:16.973Z,16.50
2023-08-09T06:53:43.856Z,16.50
2023-08-09T06:56:10.735Z,16.60
2023-08-09T06:58:37.655Z,16.60
2023-08-09T07:01:04.732Z,16.70
2023-08-09T07:03:31.797Z,16.80
2023-08-09T07:05:58.858Z,16.80
2023-08-09T07:08:27.431Z,16.90
2023-08-09T07:10:54.441Z,17.00
2023-08-09T07:13:21.364Z,17.20
2023-08-09T07:15:48.422Z,17.30
2023-08-09T07:18:15.343Z,17.40
2023-08-09T07:20:42.253Z,17.50
2023-08-09T07:23:09.163Z,17.60
2023-08-09T07:25:37.508Z,17.70
2023-08-09T07:28:05.154Z,17.80
2023-08-09T07:30:32.123Z,17.90
2023-08-09T07:32:59.074Z,18.00
2023-08-09T07:35:26.070Z,18.00
2023-08-09T07:37:53.065Z,18.00
2023-08-09T07:40:20.051Z,18.00
2023-08-09T07:42:48.271Z,18.00
2023-08-09T07:45:15.176Z,18.00
2023-08-09T07:47:42.692Z,18.00
2023-08-09T07:50:10.425Z,18.00
2023-08-09T07:52:37.826Z,18.00
2023-08-09T07:55:09.767Z,18.00
2023-08-09T07:57:36.725Z,18.00
2023-08-09T08:00:08.985Z,18.10
2023-08-09T08:02:45.013Z,18.20
2023-08-09T08:05:14.857Z,18.20
2023-08-09T08:07:42.396Z,18.20
2023-08-09T08:10:10.441Z,18.30
2023-08-09T08:12:37.432Z,18.30
2023-08-09T08:15:07.938Z,18.40
2023-08-09T08:17:35.121Z,18.40
2023-08-09T08:20:04.645Z,18.50
2023-08-09T08:22:31.591Z,18.50
2023-08-09T08:24:58.607Z,18.60
2023-08-09T08:27:26.820Z,18.70
2023-08-09T08:29:55.104Z,18.80
2023-08-09T08:32:23.374Z,18.80
2023-08-09T08:34:50.332Z,18.90
2023-08-09T08:37:17.829Z,19.00
2023-08-09T08:39:45.921Z,19.00
2023-08-09T08:42:12.877Z,19.00
2023-08-09T08:44:41.098Z,19.10
2023-08-09T08:47:08.149Z,19.30
2023-08-09T08:49:40.322Z,19.50
2023-08-09T08:52:09.052Z,19.60
2023-08-09T08:54:37.097Z,19.60
2023-08-09T08:57:04.322Z,19.70
2023-08-09T08:59:31.853Z,19.80
2023-08-09T09:01:59.060Z,19.70
2023-08-09T09:04:26.056Z,19.60
2023-08-09T09:06:55.493Z,19.60
2023-08-09T09:09:22.419Z,19.70
2023-08-09T09:11:52.780Z,19.80
2023-08-09T09:14:20.147Z,19.80
2023-08-09T09:16:49.840Z,19.80
2023-08-09T09:19:16.889Z,19.80
2023-08-09T09:21:43.820Z,19.80
2023-08-09T09:24:12.309Z,19.90
2023-08-09T09:26:39.744Z,20.00
2023-08-09T09:29:09.370Z,20.00
2023-08-09T09:31:40.726Z,20.10
2023-08-09T09:34:10.685Z,20.10
2023-08-09T09:36:39.333Z,20.00
2023-08-09T09:39:11.152Z,20.00
2023-08-09T09:41:47.391Z,20.00
2023-08-09T09:44:18.929Z,19.90
2023-08-09T09:46:45.924Z,19.80
2023-08-09T09:49:15.144Z,19.80
2023-08-09T09:51:43.987Z,19.90
2023-08-09T09:54:12.708Z,19.90
2023-08-09T09:56:42.172Z,20.00
2023-08-09T09:59:09.162Z,20.00
2023-08-09T10:01:43.042Z,20.00
2023-08-09T10:04:12.223Z,19.90
2023-08-09T10:06:43.531Z,19.90
2023-08-09T10:09:14.093Z,19.90
2023-08-09T10:11:45.624Z,19.90
2023-08-09T10:14:15.058Z,19.90
2023-08-09T10:16:44.165Z,19.80
2023-08-09T10:19:16.194Z,19.70
2023-08-09T10:21:43.513Z,19.80
2023-08-09T10:24:13.511Z,19.80
2023-08-09T10:26:45.397Z,19.80
2023-08-09T10:29:16.039Z,19.80
2023-08-09T10:31:49.524Z,19.90
2023-08-09T10:34:17.737Z,20.00
2023-08-09T10:36:50.283Z,20.00
2023-08-09T10:39:21.701Z,20.00
2023-08-09T10:42:05.793Z,20.00
2023-08-09T10:44:35.382Z,20.00
2023-08-09T10:47:03.757Z,20.10
2023-08-09T10:49:44.384Z,20.20
2023-08-09T10:52:17.584Z,20.20
2023-08-09T10:54:47.372Z,20.20
2023-08-09T10:57:17.383Z,20.20
2023-08-09T10:59:55.866Z,20.30
2023-08-09T11:02:22.809Z,20.30
2023-08-09T11:04:51.103Z,20.40
2023-08-09T11:07:20.277Z,20.60
2023-08-09T11:09:47.429Z,20.80
2023-08-09T11:12:18.151Z,20.90
2023-08-09T11:14:46.803Z,21.10
2023-08-09T11:17:14.452Z,21.30
2023-08-09T11:19:41.373Z,21.20
2023-08-09T11:22:08.757Z,21.60
2023-08-09T11:24:35.756Z,22.10
2023-08-09T11:27:02.658Z,22.30
2023-08-09T11:29:30.970Z,22.30
2023-08-09T11:31:59.669Z,22.30
2023-08-09T11:34:27.510Z,22.50
2023-08-09T11:36:56.757Z,22.60
2023-08-09T11:39:25.374Z,22.60
2023-08-09T11:41:56.023Z,22.50
2023-08-09T11:44:27.283Z,22.50
2023-08-09T11:46:57.116Z,22.50
2023-08-09T11:49:26.125Z,22.40
2023-08-09T11:51:53.402Z,22.50
2023-08-09T11:54:20.621Z,22.70
2023-08-09T11:56:47.682Z,22.80
2023-08-09T11:59:18.895Z,22.90
2023-08-09T12:01:46.924Z,22.90
2023-08-09T12:04:20.801Z,22.80
2023-08-09T12:06:51.230Z,22.80
2023-08-09T12:09:33.309Z,23.00
2023-08-09T12:12:08.631Z,23.30
2023-08-09T12:14:37.630Z,23.40
2023-08-09T12:17:06.185Z,23.40
2023-08-09T12:19:35.194Z,23.50
2023-08-09T12:22:03.039Z,23.40
2023-08-09T12:24:33.010Z,23.40
2023-08-09T12:27:00.447Z,23.30
2023-08-09T12:29:27.517Z,23.20
2023-08-09T12:31:54.638Z,23.00
2023-08-09T12:34:21.618Z,22.90
2023-08-09T12:36:49.936Z,22.90
2023-08-09T12:39:16.995Z,22.80
2023-08-09T12:41:44.107Z,22.80
2023-08-09T12:44:11.134Z,22.80
2023-08-09T12:46:38.592Z,22.80
2023-08-09T12:49:06.167Z,22.80
2023-08-09T12:51:33.400Z,22.90
2023-08-09T12:54:01.846Z,22.90
2023-08-09T12:56:32.742Z,22.90
2023-08-09T12:59:01.047Z,22.90
2023-08-09T13:01:28.554Z,22.90
2023-08-09T13:03:55.899Z,23.00
2023-08-09T13:06:22.820Z,23.00
2023-08-09T13:08:50.593Z,23.10
2023-08-09T13:11:19.183Z,23.10
2023-08-09T13:13:46.419Z,23.00
2023-08-09T13:16:13.424Z,23.00
2023-08-09T13:18:40.940Z,23.00
2023-08-09T13:21:14.236Z,23.10
2023-08-09T13:23:42.547Z,23.10
2023-08-09T13:26:09.723Z,23.00
2023-08-09T13:28:38.060Z,22.90
2023-08-09T13:31:05.042Z,22.90
2023-08-09T13:33:32.002Z,22.90
2023-08-09T13:35:58.909Z,22.90
2023-08-09T13:38:27.710Z,22.80
2023-08-09T13:40:56.218Z,22.70
2023-08-09T13:43:23.225Z,22.70
2023-08-09T13:45:51.511Z,22.70
2023-08-09T13:48:18.695Z,22.90
2023-08-09T13:50:47.603Z,23.30
2023-08-09T13:53:14.833Z,23.50
2023-08-09T13:55:42.597Z,23.60
2023-08-09T13:58:09.891Z,23.50
2023-08-09T14:00:37.484Z,23.40
2023-08-09T14:03:06.319Z,23.20
2023-08-09T14:05:33.543Z,23.10
2023-08-09T14:08:00.787Z,23.10
2023-08-09T14:10:28.131Z,23.10
2023-08-09T14:12:55.836Z,23.20
2023-08-09T14:15:22.798Z,23.40
2023-08-09T14:17:49.781Z,23.70
2023-08-09T14:20:18.629Z,23.90
2023-08-09T14:22:45.707Z,24.10
2023-08-09T14:25:14.570Z,24.10
2023-08-09T14:27:41.799Z,24.00
2023-08-09T14:30:10.606Z,23.90
2023-08-09T14:32:37.636Z,23.70
2023-08-09T14:35:09.752Z,23.40
2023-08-09T14:37:38.242Z,23.30
2023-08-09T14:40:10.738Z,23.10
2023-08-09T14:42:39.541Z,23.10
2023-08-09T14:45:08.766Z,23.00
2023-08-09T14:47:36.090Z,23.00
2023-08-09T14:50:03.612Z,23.00
2023-08-09T14:52:31.193Z,22.90
2023-08-09T14:54:59.485Z,22.80
2023-08-09T14:57:26.447Z,22.80
2023-08-09T14:59:53.384Z,22.60
2023-08-09T15:02:20.422Z,22.60
2023-08-09T15:04:47.774Z,22.50
2023-08-09T15:07:16.719Z,22.50
2023-08-09T15:09:44.444Z,22.50
2023-08-09T15:12:12.697Z,22.40
2023-08-09T15:14:42.560Z,22.40
2023-08-09T15:17:22.573Z,22.30
2023-08-09T15:19:52.447Z,22.30
2023-08-09T15:22:19.488Z,22.20
2023-08-09T15:24:46.530Z,22.10
2023-08-09T15:27:15.031Z,22.10
2023-08-09T15:29:42.236Z,22.10
2023-08-09T15:32:09.353Z,22.10
2023-08-09T15:34:37.125Z,22.20
2023-08-09T15:37:05.559Z,22.30
2023-08-09T15:39:34.098Z,22.30
2023-08-09T15:42:15.753Z,22.40
2023-08-09T15:44:47.287Z,22.50
2023-08-09T15:47:18.515Z,22.50
2023-08-09T15:49:45.921Z,22.50
2023-08-09T15:52:12.944Z,22.60
2023-08-09T15:54:40.115Z,22.80
2023-08-09T15:57:06.982Z,22.90
2023-08-09T15:59:33.886Z,23.00
2023-08-09T16:02:02.130Z,23.00
2023-08-09T16:04:29.309Z,23.10
2023-08-09T16:06:56.266Z,23.10
2023-08-09T16:09:25.178Z,23.00
2023-08-09T16:11:52.133Z,22.90
2023-08-09T16:14:19.262Z,22.90
2023-08-09T16:16:46.352Z,22.90
2023-08-09T16:19:14.797Z,22.90
2023-08-09T16:21:43.502Z,23.00
2023-08-09T16:24:10.971Z,23.00
2023-08-09T16:26:38.263Z,23.10
2023-08-09T16:29:06.078Z,23.00
2023-08-09T16:31:33.384Z,23.10
2023-08-09T16:34:00.670Z,23.10
2023-08-09T16:36:29.009Z,23.10
2023-08-09T16:38:55.974Z,23.10
2023-08-09T16:41:24.034Z,23.00
2023-08-09T16:43:54.763Z,22.90
2023-08-09T16:46:21.951Z,22.80
2023-08-09T16:48:50.505Z,22.80
2023-08-09T16:51:17.686Z,22.80
2023-08-09T16:53:45.921Z,22.80
2023-08-09T16:56:12.838Z,22.80
2023-08-09T16:58:39.723Z,22.80
2023-08-09T17:01:06.658Z,22.90
2023-08-09T17:03:33.707Z,22.90
2023-08-09T17:06:00.663Z,22.90
2023-08-09T17:08:28.328Z,22.80
2023-08-09T17:10:56.601Z,22.70
2023-08-09T17:13:23.505Z,22.60
2023-08-09T17:15:50.441Z,22.40
2023-08-09T17:18:17.493Z,22.40
2023-08-09T17:20:44.600Z,22.40
2023-08-09T17:23:11.531Z,22.30
2023-08-09T17:25:39.183Z,22.30
2023-08-09T17:28:07.786Z,22.20
2023-08-09T17:30:34.739Z,22.20
2023-08-09T17:33:02.488Z,22.20
2023-08-09T17:35:29.425Z,22.10
2023-08-09T17:37:56.705Z,22.10
2023-08-09T17:40:23.663Z,22.00
2023-08-09T17:42:51.430Z,22.00
2023-08-09T17:45:20.264Z,22.00
2023-08-09T17:47:47.439Z,21.90
2023-08-09T17:50:14.493Z,21.80
2023-08-09T17:52:41.843Z,21.80
2023-08-09T17:55:09.555Z,21.80
2023-08-09T17:57:54.746Z,21.70
2023-08-09T18:00:24.456Z,21.70
2023-08-09T18:02:53.206Z,21.60
2023-08-09T18:05:20.679Z,21.60
2023-08-09T18:07:48.098Z,21.60
2023-08-09T18:10:16.861Z,21.50
2023-08-09T18:12:45.046Z,21.50
2023-08-09T18:15:12.096Z,21.50
2023-08-09T18:17:40.527Z,21.50
2023-08-09T18:20:15.626Z,21.40
2023-08-09T18:22:45.499Z,21.40
2023-08-09T18:25:12.541Z,21.40
2023-08-09T18:27:39.455Z,21.40
2023-08-09T18:30:07.548Z,21.30
2023-08-09T18:32:34.777Z,21.30
2023-08-09T18:35:16.476Z,21.10
2023-08-09T18:37:44.737Z,21.00
2023-08-09T18:40:13.485Z,21.00
2023-08-09T18:42:41.210Z,20.80
2023-08-09T18:45:09.158Z,20.80
2023-08-09T18:47:36.125Z,20.80
2023-08-09T18:50:05.218Z,20.70
2023-08-09T18:52:32.338Z,20.70
2023-08-09T18:54:59.406Z,20.70
2023-08-09T18:57:27.028Z,20.60
2023-08-09T18:59:54.036Z,20.50
2023-08-09T19:02:21.162Z,20.50
2023-08-09T19:04:48.722Z,20.40
2023-08-09T19:07:17.480Z,20.30
2023-08-09T19:09:45.216Z,20.20
2023-08-09T19:12:12.673Z,20.20
2023-08-09T19:14:39.865Z,20.10
2023-08-09T19:17:07.430Z,20.10
2023-08-09T19:19:34.872Z,20.00
2023-08-09T19:22:01.944Z,20.00
2023-08-09T19:24:30.261Z,19.90
2023-08-09T19:26:59.734Z,19.80
2023-08-09T19:29:26.708Z,19.70
2023-08-09T19:31:54.554Z,19.70
2023-08-09T19:34:21.505Z,19.60
2023-08-09T19:36:48.402Z,19.60
2023-08-09T19:39:15.349Z,19.60
2023-08-09T19:41:43.685Z,19.60
2023-08-09T19:44:10.855Z,19.60
2023-08-09T19:46:37.818Z,19.60
2023-08-09T19:49:06.268Z,19.60
2023-08-09T19:51:33.813Z,19.50
2023-08-09T19:54:00.748Z,19.50
2023-08-09T19:56:27.791Z,19.40
2023-08-09T19:58:56.071Z,19.30
2023-08-09T20:01:23.263Z,19.30
2023-08-09T20:03:50.156Z,19.30
2023-08-09T20:06:17.152Z,19.30
2023-08-09T20:08:44.434Z,19.20
2023-08-09T20:11:13.537Z,19.20
2023-08-09T20:13:40.588Z,19.20
2023-08-09T20:16:08.860Z,19.20
2023-08-09T20:18:36.136Z,19.10
2023-08-09T20:21:05.558Z,19.20
2023-08-09T20:23:32.495Z,19.20
2023-08-09T20:25:59.696Z,19.20
2023-08-09T20:28:26.649Z,19.10
2023-08-09T20:30:53.647Z,19.10
2023-08-09T20:33:22.811Z,19.10
2023-08-09T20:35:50.137Z,19.10
2023-08-09T20:38:17.192Z,19.10
2023-08-09T20:40:49.045Z,19.10
2023-08-09T20:43:15.996Z,19.00
2023-08-09T20:45:42.888Z,19.00
2023-08-09T20:48:09.977Z,19.00
2023-08-09T20:50:38.723Z,19.00
2023-08-09T20:53:05.725Z,18.90
2023-08-09T20:55:32.889Z,18.90
2023-08-09T20:57:59.809Z,18.90
2023-08-09T21:00:27.069Z,18.90
2023-08-09T21:02:53.990Z,18.80
2023-08-09T21:05:21.214Z,18.90
2023-08-09T21:07:49.481Z,18.80
2023-08-09T21:10:16.400Z,18.90
2023-08-09T21:12:44.450Z,18.80
2023-08-09T21:15:11.738Z,18.70
2023-08-09T21:17:39.631Z,18.70
2023-08-09T21:20:08.127Z,18.70
2023-08-09T21:22:35.008Z,18.60
2023-08-09T21:27:33.133Z,18.60
2023-08-09T21:30:00.712Z,18.60
2023-08-09T21:32:27.813Z,18.60
2023-08-09T21:34:54.765Z,18.60
2023-08-09T21:37:21.783Z,18.60
2023-08-09T21:39:48.722Z,18.50
2023-08-09T21:42:18.066Z,18.40
2023-08-09T21:44:45.069Z,18.30
2023-08-09T21:47:11.999Z,18.30
2023-08-09T21:49:39.472Z,18.30
2023-08-09T21:52:06.647Z,18.20
2023-08-09T21:54:33.625Z,18.20
2023-08-09T21:57:00.552Z,18.10
2023-08-09T21:59:28.839Z,18.10
2023-08-09T22:01:55.967Z,18.00
2023-08-09T22:04:23.030Z,18.00
2023-08-09T22:06:49.953Z,18.00
2023-08-09T22:09:17.233Z,17.90
2023-08-09T22:11:47.984Z,17.80
2023-08-09T22:14:15.216Z,17.80
2023-08-09T22:16:43.788Z,17.70
2023-08-09T22:19:11.299Z,17.70
2023-08-09T22:21:47.221Z,17.70
2023-08-09T22:24:19.558Z,17.60
2023-08-09T22:26:46.539Z,17.50
2023-08-09T22:29:14.785Z,17.30
2023-08-09T22:31:43.121Z,17.10
2023-08-09T22:34:10.104Z,16.90
2023-08-09T22:36:37.105Z,16.90
2023-08-09T22:39:04.016Z,16.90
2023-08-09T22:41:30.929Z,16.80
2023-08-09T22:43:57.837Z,16.70
2023-08-09T22:46:24.745Z,16.50
2023-08-09T22:48:53.065Z,16.40
2023-08-09T22:51:20.031Z,16.30
2023-08-09T22:53:47.072Z,16.20
2023-08-09T22:56:15.339Z,16.10
2023-08-09T22:58:42.432Z,16.10
2023-08-09T23:01:09.453Z,16.00
2023-08-09T23:03:36.511Z,16.00
2023-08-09T23:06:04.981Z,16.00
2023-08-09T23:08:31.903Z,16.00
2023-08-09T23:10:58.863Z,15.90
2023-08-09T23:13:27.483Z,15.90
2023-08-09T23:15:56.021Z,15.90
2023-08-09T23:18:23.012Z,15.90
2023-08-09T23:20:51.680Z,15.90
2023-08-09T23:23:20.636Z,15.90
2023-08-09T23:25:47.573Z,15.90
2023-08-09T23:28:14.509Z,16.00
2023-08-09T23:30:41.590Z,16.10
2023-08-09T23:33:08.749Z,16.10
2023-08-09T23:35:35.776Z,16.10
2023-08-09T23:38:02.743Z,16.10
2023-08-09T23:40:31.022Z,16.10
2023-08-09T23:42:57.969Z,16.10
2023-08-09T23:45:24.926Z,16.10
2023-08-09T23:47:53.194Z,16.10
2023-08-09T23:50:20.313Z,16.00
2023-08-09T23:52:47.265Z,15.90
2023-08-09T23:55:14.250Z,15.80
2023-08-09T23:57:42.742Z,15.70
